Time;durP1;ratioP1;P1;durP2;ratioP2;P2;SDS_P1;SDS_P2;PMS_P1;PMS_P2;Temp;Humidity;BMP_temperature;BMP_pressure;BME280_temperature;BME280_humidity;BME280_pressure;Samples;Min_cycle;Max_cycle;Signal;HPM_P1;HPM_P2
2023/06/21 00:01:00;;;;;;;10.30;5.75;;;;;;;14.00;86.86;96593.75;5055865;28;20045;-69
2023/06/21 00:03:27;;;;;;;7.35;5.75;;;;;;;14.05;87.36;96583.00;5056005;28;20150;-69
2023/06/21 00:05:54;;;;;;;8.40;5.72;;;;;;;14.05;86.77;96581.19;5056018;28;20449;-70
2023/06/21 00:08:22;;;;;;;7.45;6.65;;;;;;;13.99;87.73;96579.72;5055914;28;20045;-69
2023/06/21 00:10:49;;;;;;;10.13;6.32;;;;;;;14.04;87.64;96582.13;5055951;28;20056;-69
2023/06/21 00:13:18;;;;;;;11.57;5.82;;;;;;;14.10;87.61;96581.81;5055929;28;20045;-70
2023/06/21 00:15:45;;;;;;;6.05;5.10;;;;;;;14.13;87.59;96586.06;5055922;28;20103;-69
2023/06/21 00:18:12;;;;;;;7.65;5.68;;;;;;;14.14;86.63;96591.25;5055043;28;20406;-69
2023/06/21 00:20:39;;;;;;;7.07;5.70;;;;;;;14.12;86.46;96587.00;5055771;28;20041;-69
2023/06/21 00:23:08;;;;;;;8.00;5.68;;;;;;;14.07;86.71;96586.38;5055675;28;20048;-69
2023/06/21 00:25:36;;;;;;;6.95;5.65;;;;;;;14.10;86.69;96594.97;5055550;28;20040;-69
2023/06/21 00:28:03;;;;;;;9.93;6.40;;;;;;;14.04;86.41;96600.53;5055621;28;20549;-69
2023/06/21 00:30:31;;;;;;;13.35;6.30;;;;;;;14.06;86.80;96601.28;5055520;28;20049;-69
2023/06/21 00:33:00;;;;;;;8.05;5.90;;;;;;;13.96;86.42;96600.06;5055426;28;20048;-69
2023/06/21 00:35:27;;;;;;;9.05;6.22;;;;;;;13.86;87.87;96597.91;5055451;28;20128;-69
2023/06/21 00:37:55;;;;;;;10.07;5.72;;;;;;;13.81;88.05;96597.28;5055271;28;20072;-69
2023/06/21 00:40:25;;;;;;;8.55;7.43;;;;;;;13.84;89.34;96596.28;5055349;28;20053;-69
2023/06/21 00:42:53;;;;;;;10.68;6.60;;;;;;;13.87;89.62;96596.13;5055277;28;20053;-69
2023/06/21 00:45:21;;;;;;;17.63;6.40;;;;;;;13.82;89.46;96604.25;5055386;28;20095;-69
2023/06/21 00:47:51;;;;;;;11.50;5.82;;;;;;;13.80;90.23;96610.50;5055155;28;20120;-69
2023/06/21 00:50:19;;;;;;;14.65;7.28;;;;;;;13.83;90.33;96608.59;5055382;28;20048;-69
2023/06/21 00:52:46;;;;;;;10.38;6.43;;;;;;;13.86;90.05;96604.94;5055219;28;20049;-69
2023/06/21 00:55:14;;;;;;;9.80;6.22;;;;;;;13.80;89.91;96602.63;5055249;28;20048;-69
2023/06/21 00:57:44;;;;;;;11.68;6.07;;;;;;;13.79;90.19;96599.16;5054920;28;20106;-69
2023/06/21 01:00:19;;;;;;;14.07;6.88;;;;;;;13.82;90.10;96591.09;5054830;28;20049;-69
2023/06/21 01:02:47;;;;;;;10.02;5.57;;;;;;;13.72;90.10;96593.34;5054979;28;20499;-69
2023/06/21 01:05:17;;;;;;;9.13;6.22;;;;;;;13.70;90.10;96595.19;5054943;28;20048;-69
2023/06/21 01:07:55;;;;;;;14.05;6.72;;;;;;;13.69;90.42;96598.75;5054936;28;20052;-69
2023/06/21 01:10:33;;;;;;;9.88;6.90;;;;;;;13.67;90.23;96597.13;5054671;28;20045;-69
2023/06/21 01:13:15;;;;;;;13.75;7.60;;;;;;;13.68;90.16;96596.19;5054731;28;20053;-69
2023/06/21 01:15:46;;;;;;;9.50;7.13;;;;;;;13.70;90.42;96595.19;5054655;28;20473;-69
2023/06/21 01:18:14;;;;;;;;;;;;;;;13.76;91.41;96594.06;5055370;28;20052;-70
2023/06/21 01:20:50;;;;;;;7.53;6.43;;;;;;;13.74;90.47;96602.03;5054653;28;19921;-69
2023/06/21 01:23:28;;;;;;;9.13;6.07;;;;;;;13.76;89.90;96596.69;5054642;28;20045;-69
2023/06/21 01:26:12;;;;;;;14.23;6.00;;;;;;;13.75;88.92;96594.97;5054472;28;20059;-69
2023/06/21 01:29:00;;;;;;;9.52;6.25;;;;;;;13.73;89.91;96594.22;5054351;28;20049;-69
2023/06/21 01:31:28;;;;;;;9.55;6.22;;;;;;;13.74;89.74;96593.28;5053302;28;20047;-69
2023/06/21 01:33:57;;;;;;;8.27;5.95;;;;;;;13.75;89.68;96595.81;5054364;28;20055;-69
2023/06/21 01:36:25;;;;;;;8.65;6.95;;;;;;;13.72;89.89;96597.75;5054160;28;20459;-69
2023/06/21 01:38:56;;;;;;;10.02;7.10;;;;;;;13.74;90.60;96595.91;5054210;28;20570;-69
2023/06/21 01:41:23;;;;;;;17.35;7.30;;;;;;;13.74;90.09;96591.50;5054131;28;20482;-69
2023/06/21 01:43:51;;;;;;;10.35;6.97;;;;;;;13.68;90.21;96589.19;5054369;28;20071;-69
2023/06/21 01:46:22;;;;;;;12.40;6.85;;;;;;;13.67;90.62;96591.88;5054187;28;20080;-69
2023/06/21 01:48:50;;;;;;;7.57;6.78;;;;;;;13.61;90.44;96593.03;5054159;28;20487;-69
2023/06/21 01:51:20;;;;;;;11.00;6.97;;;;;;;13.57;90.32;96596.75;5054076;28;20479;-69
2023/06/21 01:53:47;;;;;;;13.45;6.88;;;;;;;13.58;90.52;96596.66;5053998;28;20094;-69
2023/06/21 01:56:18;;;;;;;12.40;7.30;;;;;;;13.57;90.24;96597.59;5053825;28;20052;-69
2023/06/21 01:58:46;;;;;;;8.93;6.93;;;;;;;13.60;90.34;96589.56;5053833;28;20053;-69
2023/06/21 02:01:15;;;;;;;8.35;7.40;;;;;;;13.62;90.17;96582.44;5053578;28;20044;-69
2023/06/21 02:03:49;;;;;;;12.48;6.90;;;;;;;13.59;90.04;96589.63;5053854;28;20464;-69
2023/06/21 02:06:20;;;;;;;16.95;6.85;;;;;;;13.48;90.11;96583.09;5053648;28;20049;-69
2023/06/21 02:08:49;;;;;;;8.25;6.82;;;;;;;13.41;90.21;96586.94;5053684;28;20545;-69
2023/06/21 02:11:17;;;;;;;11.40;6.80;;;;;;;13.43;90.43;96594.75;5053562;28;20045;-69
2023/06/21 02:13:48;;;;;;;7.45;6.70;;;;;;;13.45;90.31;96591.13;5053644;28;20404;-69
2023/06/21 02:16:15;;;;;;;;;;;;;;;13.45;90.08;96592.91;5054053;28;20052;-69
2023/06/21 02:18:43;;;;;;;11.23;5.78;;;;;;;13.43;89.47;96600.88;5053411;28;19920;-69
2023/06/21 02:21:11;;;;;;;7.28;6.57;;;;;;;13.41;89.87;96592.22;5053432;28;20045;-69
2023/06/21 02:23:38;;;;;;;11.23;6.70;;;;;;;13.37;89.40;96590.66;5053492;28;20049;-69
2023/06/21 02:26:06;;;;;;;10.02;6.45;;;;;;;13.36;89.95;96594.19;5053365;28;20067;-69
2023/06/21 02:28:33;;;;;;;10.45;6.70;;;;;;;13.34;90.88;96588.19;5053233;28;20121;-69
2023/06/21 02:31:00;;;;;;;7.97;6.60;;;;;;;13.36;90.51;96599.44;5053200;28;20052;-69
2023/06/21 02:33:28;;;;;;;14.75;6.78;;;;;;;13.35;90.63;96601.25;5053205;28;20052;-69
2023/06/21 02:35:56;;;;;;;11.32;6.72;;;;;;;13.39;90.23;96591.41;5053437;28;20056;-69
2023/06/21 02:38:25;;;;;;;8.30;6.15;;;;;;;13.38;90.66;96597.59;5053169;28;20053;-69
2023/06/21 02:40:52;;;;;;;9.65;6.85;;;;;;;13.40;90.18;96601.03;5053066;28;20103;-69
2023/06/21 02:43:20;;;;;;;17.42;6.93;;;;;;;13.39;90.29;96596.66;5053017;28;20052;-69
2023/06/21 02:45:48;;;;;;;8.10;6.57;;;;;;;13.40;90.27;96604.47;5053059;28;20415;-69
2023/06/21 02:48:15;;;;;;;8.43;6.00;;;;;;;13.46;89.72;96599.88;5053048;28;20048;-69
2023/06/21 02:50:42;;;;;;;11.73;6.55;;;;;;;13.50;89.98;96604.06;5052973;28;20044;-69
2023/06/21 02:53:11;;;;;;;7.88;6.03;;;;;;;13.52;89.42;96604.84;5052972;28;20403;-69
2023/06/21 02:55:38;;;;;;;14.48;6.57;;;;;;;13.52;89.53;96607.47;5053283;28;20244;-69
2023/06/21 02:58:05;;;;;;;8.15;5.97;;;;;;;13.52;89.97;96615.38;5052952;28;20399;-69
2023/06/21 03:00:33;;;;;;;7.80;7.10;;;;;;;13.59;89.70;96613.28;5052980;28;20049;-69
2023/06/21 03:03:02;;;;;;;9.80;7.03;;;;;;;13.57;89.62;96620.41;5053020;28;20056;-69
2023/06/21 03:05:29;;;;;;;6.30;5.72;;;;;;;13.57;89.18;96626.50;5053161;28;20114;-69
2023/06/21 03:07:57;;;;;;;6.32;5.38;;;;;;;13.54;89.58;96621.38;5053077;28;20136;-69
2023/06/21 03:10:26;;;;;;;8.68;6.88;;;;;;;13.52;90.07;96616.19;5053082;28;20061;-69
2023/06/21 03:12:53;;;;;;;8.95;7.28;;;;;;;13.52;90.23;96615.38;5052930;28;20083;-69
2023/06/21 03:15:20;;;;;;;7.30;6.50;;;;;;;13.57;90.61;96618.59;5052949;28;20124;-69
2023/06/21 03:17:48;;;;;;;13.95;6.78;;;;;;;13.63;90.93;96614.81;5052768;28;20049;-69
2023/06/21 03:20:15;;;;;;;7.85;7.05;;;;;;;13.67;90.89;96618.16;5052877;28;20099;-69
2023/06/21 03:22:44;;;;;;;8.85;6.93;;;;;;;13.69;90.96;96614.53;5052770;28;20044;-69
2023/06/21 03:25:11;;;;;;;16.00;6.95;;;;;;;13.75;91.14;96622.13;5052782;28;20049;-69
2023/06/21 03:27:41;;;;;;;7.20;6.18;;;;;;;13.85;91.47;96619.03;5052920;28;20079;-69
2023/06/21 03:30:11;;;;;;;8.38;6.47;;;;;;;14.03;91.67;96623.34;5052775;28;20049;-69
2023/06/21 03:32:39;;;;;;;8.50;6.07;;;;;;;14.28;91.66;96616.84;5052709;28;20467;-69
2023/06/21 03:35:07;;;;;;;8.52;6.40;;;;;;;14.60;90.19;96628.41;5052690;28;20107;-69
2023/06/21 03:37:35;;;;;;;10.50;5.55;;;;;;;14.96;88.51;96629.16;5052554;28;20553;-69
2023/06/21 03:40:03;;;;;;;12.02;5.13;;;;;;;15.28;86.08;96630.03;5052647;28;20137;-69
2023/06/21 03:42:31;;;;;;;6.53;4.55;;;;;;;15.63;84.07;96633.38;5052618;28;20486;-69
2023/06/21 03:45:00;;;;;;;11.45;4.95;;;;;;;16.01;82.61;96640.91;5052542;28;20045;-69
2023/06/21 03:47:27;;;;;;;6.07;5.22;;;;;;;16.42;81.25;96639.41;5052482;28;20053;-69
2023/06/21 03:49:57;;;;;;;6.65;4.47;;;;;;;16.85;79.64;96637.69;5052644;28;20049;-69
2023/06/21 03:52:25;;;;;;;5.25;4.28;;;;;;;17.22;76.07;96639.00;5052505;28;20056;-69
2023/06/21 03:54:54;;;;;;;6.95;4.15;;;;;;;17.55;74.44;96643.09;5055257;28;20056;-69
2023/06/21 03:57:21;;;;;;;5.85;4.53;;;;;;;17.89;74.13;96635.59;5056179;28;20135;-69
2023/06/21 03:59:48;;;;;;;8.27;4.85;;;;;;;18.27;73.41;96636.63;5055819;28;20550;-69
2023/06/21 04:02:17;;;;;;;8.43;3.97;;;;;;;18.63;72.32;96633.38;5056175;28;20049;-69
2023/06/21 04:04:45;;;;;;;5.03;4.10;;;;;;;18.99;71.05;96633.53;5055983;28;20053;-69
2023/06/21 04:07:12;;;;;;;4.88;3.95;;;;;;;19.29;69.73;96641.13;5055940;28;20045;-69
2023/06/21 04:09:39;;;;;;;5.38;3.88;;;;;;;19.65;68.45;96645.66;5055955;28;20127;-69
2023/06/21 04:12:07;;;;;;;4.70;3.55;;;;;;;20.00;67.96;96646.66;5055880;28;20132;-69
2023/06/21 04:14:34;;;;;;;5.90;3.60;;;;;;;20.26;66.37;96644.72;5055939;28;20136;-69
2023/06/21 04:17:02;;;;;;;4.05;3.65;;;;;;;20.61;65.83;96650.97;5055816;28;20094;-69
2023/06/21 04:19:31;;;;;;;4.90;3.90;;;;;;;20.98;64.70;96646.44;5055598;28;20053;-69
2023/06/21 04:21:58;;;;;;;5.78;4.10;;;;;;;21.24;64.36;96640.84;5055757;28;20045;-69
2023/06/21 04:24:25;;;;;;;3.70;3.40;;;;;;;21.48;63.56;96645.16;5055779;28;20051;-69
2023/06/21 04:26:53;;;;;;;6.03;3.47;;;;;;;21.78;64.10;96649.81;5055598;28;20069;-69
2023/06/21 04:29:21;;;;;;;4.55;3.67;;;;;;;22.11;62.37;96640.97;5055563;28;20053;-69
2023/06/21 04:31:51;;;;;;;12.38;3.90;;;;;;;22.37;61.78;96644.13;5055562;28;20048;-69
2023/06/21 04:34:19;;;;;;;4.40;3.40;;;;;;;22.68;61.03;96644.19;5055610;28;20044;-69
2023/06/21 04:36:48;;;;;;;3.65;3.35;;;;;;;22.93;60.58;96641.19;5055436;28;20468;-69
2023/06/21 04:39:16;;;;;;;6.60;3.63;;;;;;;23.15;60.03;96653.50;5055348;28;20075;-68
2023/06/21 04:41:46;;;;;;;3.47;3.17;;;;;;;23.46;59.52;96650.00;5055260;28;20045;-68
2023/06/21 04:44:17;;;;;;;6.30;3.53;;;;;;;23.75;59.10;96649.16;5055317;28;20163;-69
2023/06/21 04:46:45;;;;;;;4.82;3.20;;;;;;;24.06;58.25;96650.88;5055205;28;20049;-69
2023/06/21 04:49:12;;;;;;;3.63;3.33;;;;;;;24.33;57.36;96652.88;5055164;28;20052;-69
2023/06/21 04:51:40;;;;;;;6.30;3.05;;;;;;;24.59;57.34;96652.25;5055168;28;20041;-69
2023/06/21 04:54:09;;;;;;;5.78;3.28;;;;;;;24.84;56.75;96643.75;5055098;28;20041;-68
2023/06/21 04:56:37;;;;;;;4.55;3.20;;;;;;;25.09;56.51;96654.81;5055184;28;20049;-68
2023/06/21 04:59:04;;;;;;;10.27;3.70;;;;;;;25.32;55.88;96651.75;5054944;28;20049;-68
2023/06/21 05:01:32;;;;;;;4.40;3.67;;;;;;;25.54;55.83;96653.19;5054793;28;20049;-68
2023/06/21 05:04:00;;;;;;;5.10;3.30;;;;;;;25.81;55.30;96656.00;5054954;28;20099;-68
2023/06/21 05:06:27;;;;;;;6.00;3.25;;;;;;;25.98;55.17;96654.31;5054953;28;20048;-69
2023/06/21 05:08:54;;;;;;;4.00;3.58;;;;;;;26.11;55.31;96660.13;5054889;28;20124;-68
2023/06/21 05:11:23;;;;;;;5.53;3.40;;;;;;;26.37;54.41;96663.91;5054776;28;20450;-68
2023/06/21 05:13:50;;;;;;;3.90;3.50;;;;;;;26.62;53.11;96659.56;5054751;28;20048;-69
2023/06/21 05:16:19;;;;;;;5.57;3.80;;;;;;;26.86;52.53;96666.09;5054585;28;20131;-69
2023/06/21 05:18:47;;;;;;;7.40;3.50;;;;;;;27.04;51.44;96664.34;5054596;28;20239;-68
2023/06/21 05:21:14;;;;;;;9.35;3.25;;;;;;;27.17;53.07;96666.59;5054599;28;20048;-68
2023/06/21 05:23:42;;;;;;;5.07;3.55;;;;;;;27.39;53.66;96667.84;5054601;28;20103;-68
2023/06/21 05:26:09;;;;;;;6.47;3.50;;;;;;;27.54;53.66;96662.69;5054597;28;20054;-68
2023/06/21 05:28:37;;;;;;;4.57;3.80;;;;;;;27.77;52.38;96669.34;5054486;28;20045;-68
2023/06/21 05:31:04;;;;;;;8.93;3.67;;;;;;;27.95;49.83;96661.16;5054468;28;20049;-68
2023/06/21 05:33:31;;;;;;;3.90;3.53;;;;;;;28.03;50.27;96665.69;5054507;28;20463;-69
2023/06/21 05:35:59;;;;;;;4.05;3.67;;;;;;;28.00;48.44;96669.56;5054320;28;20135;-68
2023/06/21 05:38:26;;;;;;;4.47;3.60;;;;;;;28.22;47.52;96672.59;5054310;28;20053;-69
2023/06/21 05:40:53;;;;;;;5.85;3.70;;;;;;;28.53;50.47;96669.25;5054292;28;20083;-69
2023/06/21 05:43:20;;;;;;;6.13;3.85;;;;;;;28.82;48.76;96670.59;5054184;28;20541;-69
2023/06/21 05:45:49;;;;;;;5.13;4.13;;;;;;;29.09;48.97;96665.00;5054096;28;20052;-69
2023/06/21 05:48:16;;;;;;;7.55;4.10;;;;;;;29.28;47.24;96669.13;5054192;28;20041;-69
2023/06/21 05:50:43;;;;;;;4.50;3.80;;;;;;;29.58;47.61;96665.81;5054030;28;20045;-68
2023/06/21 05:53:10;;;;;;;4.85;3.97;;;;;;;29.70;47.13;96669.81;5053991;28;20079;-68
2023/06/21 05:55:37;;;;;;;5.82;4.18;;;;;;;29.85;46.13;96666.34;5053900;28;20049;-68
2023/06/21 05:58:05;;;;;;;5.10;4.18;;;;;;;30.02;45.22;96664.41;5053801;28;20044;-68
2023/06/21 06:00:32;;;;;;;4.10;3.70;;;;;;;30.13;45.63;96676.63;5053597;28;20076;-68
2023/06/21 06:03:01;;;;;;;4.07;3.72;;;;;;;30.14;42.54;96676.44;5053740;28;20098;-69
2023/06/21 06:05:28;;;;;;;6.28;4.00;;;;;;;30.41;46.55;96673.41;5053784;28;20479;-68
2023/06/21 06:07:56;;;;;;;3.92;3.63;;;;;;;30.62;43.41;96683.50;5053840;28;20048;-69
2023/06/21 06:10:23;;;;;;;8.20;4.38;;;;;;;30.82;45.67;96679.47;5053611;28;20578;-67
2023/06/21 06:12:50;;;;;;;4.53;4.13;;;;;;;30.98;44.79;96678.47;5053690;28;20077;-69
2023/06/21 06:15:18;;;;;;;4.75;4.00;;;;;;;31.08;43.55;96676.31;5053612;28;20081;-69
2023/06/21 06:17:46;;;;;;;4.72;3.80;;;;;;;31.08;42.22;96670.06;5052993;28;20061;-68
2023/06/21 06:20:15;;;;;;;5.93;3.60;;;;;;;31.20;43.15;96679.41;5053419;28;20099;-68
2023/06/21 06:22:42;;;;;;;4.63;3.75;;;;;;;31.40;43.05;96679.69;5053525;28;20045;-69
2023/06/21 06:25:10;;;;;;;5.20;3.53;;;;;;;31.51;41.67;96672.13;5053419;28;20052;-68
2023/06/21 06:27:38;;;;;;;7.55;3.70;;;;;;;31.71;40.29;96660.72;5053368;28;20052;-69
2023/06/21 06:30:06;;;;;;;3.70;3.40;;;;;;;31.80;36.12;96664.97;5053271;28;20053;-69
2023/06/21 06:32:33;;;;;;;4.60;3.50;;;;;;;31.82;37.84;96664.78;5053313;28;20445;-68
2023/06/21 06:35:00;;;;;;;6.75;3.30;;;;;;;32.01;41.53;96668.78;5053531;28;20238;-69
2023/06/21 06:37:29;;;;;;;3.85;3.50;;;;;;;32.20;40.81;96666.47;5053274;28;20052;-68
2023/06/21 06:39:56;;;;;;;7.40;3.33;;;;;;;32.35;41.31;96663.69;5053073;28;20048;-69
2023/06/21 06:42:24;;;;;;;7.95;3.70;;;;;;;32.44;40.82;96667.91;5053151;28;20067;-69
2023/06/21 06:44:52;;;;;;;5.93;3.65;;;;;;;32.59;40.02;96665.16;5053322;28;20132;-69
2023/06/21 06:47:19;;;;;;;5.05;3.50;;;;;;;32.75;37.84;96663.19;5053223;28;20045;-69
2023/06/21 06:49:47;;;;;;;4.93;3.20;;;;;;;32.85;37.14;96665.53;5053262;28;20045;-69
2023/06/21 06:52:14;;;;;;;6.15;3.45;;;;;;;32.93;38.64;96662.72;5053173;28;20059;-69
2023/06/21 06:54:42;;;;;;;3.63;3.33;;;;;;;33.00;39.05;96665.44;5053323;28;20045;-69
2023/06/21 06:57:10;;;;;;;5.57;3.28;;;;;;;33.17;38.01;96652.47;5053202;28;20122;-69
2023/06/21 06:59:37;;;;;;;3.58;3.28;;;;;;;33.35;36.42;96653.78;5053144;28;20071;-69
2023/06/21 07:02:04;;;;;;;4.25;3.33;;;;;;;33.50;35.68;96657.16;5052976;28;20083;-69
2023/06/21 07:04:32;;;;;;;5.78;3.97;;;;;;;33.51;34.74;96650.72;5052999;28;20041;-69
2023/06/21 07:07:01;;;;;;;3.80;3.40;;;;;;;33.69;31.57;96651.22;5053206;28;20124;-69
2023/06/21 07:09:30;;;;;;;3.25;2.95;;;;;;;33.77;34.93;96645.63;5053112;28;20491;-69
2023/06/21 07:12:01;;;;;;;4.63;3.35;;;;;;;33.82;35.55;96645.00;5052882;28;20045;-69
2023/06/21 07:14:28;;;;;;;4.15;3.75;;;;;;;33.81;33.56;96643.34;5052879;28;20498;-69
2023/06/21 07:16:55;;;;;;;3.58;3.20;;;;;;;33.84;35.29;96645.63;5053017;28;20041;-69
2023/06/21 07:19:22;;;;;;;4.28;3.38;;;;;;;33.85;34.15;96656.28;5052866;28;20091;-69
2023/06/21 07:21:50;;;;;;;3.92;2.92;;;;;;;33.85;33.90;96652.72;5053042;28;20081;-69
2023/06/21 07:24:17;;;;;;;3.47;3.17;;;;;;;33.94;35.54;96650.66;5052845;28;20045;-69
2023/06/21 07:26:44;;;;;;;3.85;3.53;;;;;;;33.98;34.67;96655.47;5053035;28;20471;-69
2023/06/21 07:29:13;;;;;;;5.50;3.50;;;;;;;33.87;35.31;96647.94;5056371;28;20063;-69
2023/06/21 07:31:40;;;;;;;7.30;3.20;;;;;;;33.94;35.48;96645.22;5056950;28;20072;-69
2023/06/21 07:34:08;;;;;;;3.78;3.33;;;;;;;34.06;33.39;96653.59;5056638;28;20080;-69
2023/06/21 07:36:36;;;;;;;4.38;3.47;;;;;;;34.23;32.32;96648.66;5056545;28;20045;-69
2023/06/21 07:39:04;;;;;;;5.35;3.72;;;;;;;34.21;33.47;96651.56;5056557;28;20053;-69
2023/06/21 07:41:31;;;;;;;4.95;3.47;;;;;;;34.31;33.59;96653.06;5056577;28;20581;-69
2023/06/21 07:43:58;;;;;;;5.70;3.30;;;;;;;34.16;30.91;96648.66;5056566;28;20049;-69
2023/06/21 07:46:27;;;;;;;4.97;3.50;;;;;;;34.16;31.13;96654.91;5056499;28;20131;-69
2023/06/21 07:48:54;;;;;;;4.07;3.58;;;;;;;34.09;30.64;96645.03;5056402;28;20063;-69
2023/06/21 07:51:22;;;;;;;3.88;3.50;;;;;;;34.14;34.42;96632.59;5056384;28;20044;-69
2023/06/21 07:53:49;;;;;;;7.18;3.35;;;;;;;34.09;33.24;96650.47;5056385;28;20049;-69
2023/06/21 07:56:16;;;;;;;3.78;3.47;;;;;;;34.16;32.53;96645.94;5056337;28;20499;-69
2023/06/21 07:58:44;;;;;;;5.95;3.28;;;;;;;33.96;30.43;96649.44;5056240;28;20084;-69
2023/06/21 08:01:12;;;;;;;3.50;3.25;;;;;;;33.86;29.68;96640.84;5055922;28;20060;-69
2023/06/21 08:03:40;;;;;;;3.65;3.35;;;;;;;33.49;29.86;96643.81;5055969;28;20059;-69
2023/06/21 08:06:08;;;;;;;4.70;3.30;;;;;;;33.31;31.56;96644.41;5056027;28;20045;-69
2023/06/21 08:08:37;;;;;;;5.93;3.35;;;;;;;32.71;29.79;96645.69;5055932;28;20045;-69
2023/06/21 08:11:04;;;;;;;3.95;3.47;;;;;;;32.19;31.61;96640.44;5055950;28;20081;-69
2023/06/21 08:13:32;;;;;;;3.80;3.45;;;;;;;32.27;30.39;96643.03;5055904;28;20052;-69
2023/06/21 08:16:00;;;;;;;4.00;3.45;;;;;;;32.02;30.02;96646.94;5055926;28;20045;-69
2023/06/21 08:18:32;;;;;;;6.57;3.72;;;;;;;31.97;32.95;96640.44;5055857;28;20051;-69
2023/06/21 08:21:08;;;;;;;4.90;3.78;;;;;;;32.09;35.43;96638.06;5055826;28;20048;-69
2023/06/21 08:23:40;;;;;;;7.50;3.67;;;;;;;32.12;32.22;96638.50;5055793;28;20048;-69
2023/06/21 08:26:09;;;;;;;4.20;3.53;;;;;;;32.23;33.05;96637.16;5055756;28;20154;-69
2023/06/21 08:28:37;;;;;;;4.88;3.75;;;;;;;32.36;32.66;96644.53;5055517;28;20053;-69
2023/06/21 08:31:04;;;;;;;4.50;3.88;;;;;;;32.38;31.20;96649.75;5055692;28;20060;-69
2023/06/21 08:33:31;;;;;;;4.90;3.90;;;;;;;32.43;29.12;96647.31;5055784;28;20083;-69
2023/06/21 08:35:58;;;;;;;4.35;3.95;;;;;;;32.35;30.98;96644.75;5055515;28;20498;-69
2023/06/21 08:38:26;;;;;;;5.03;3.88;;;;;;;32.21;30.41;96641.94;5055561;28;20045;-69
2023/06/21 08:40:59;;;;;;;5.38;4.40;;;;;;;32.18;31.37;96636.06;5054860;28;20049;-69
2023/06/21 08:43:28;;;;;;;4.68;3.85;;;;;;;32.00;32.05;96638.19;5055359;28;20045;-69
2023/06/21 08:45:55;;;;;;;3.83;3.47;;;;;;;32.04;32.48;96644.03;5055281;28;20084;-69
2023/06/21 08:48:23;;;;;;;4.15;3.78;;;;;;;31.83;33.54;96642.97;5055329;28;20060;-69
2023/06/21 08:50:51;;;;;;;4.97;3.58;;;;;;;31.97;32.34;96643.16;5055222;28;20068;-69
2023/06/21 08:53:26;;;;;;;4.45;4.05;;;;;;;31.93;31.61;96639.97;5055187;28;20045;-69
2023/06/21 08:55:57;;;;;;;5.03;3.88;;;;;;;31.99;33.01;96643.81;5055079;28;20080;-69
2023/06/21 08:58:28;;;;;;;3.90;3.50;;;;;;;32.05;31.79;96637.59;5055121;28;20045;-69
2023/06/21 09:00:59;;;;;;;4.25;3.33;;;;;;;32.25;29.29;96645.91;5054708;28;20059;-69
2023/06/21 09:03:31;;;;;;;3.92;3.63;;;;;;;32.39;32.85;96636.03;5054945;28;20471;-69
2023/06/21 09:06:03;;;;;;;5.22;4.05;;;;;;;32.50;28.80;96642.81;5054922;28;20091;-69
2023/06/21 09:08:32;;;;;;;4.55;3.70;;;;;;;32.35;32.21;96645.56;5054903;28;20445;-69
2023/06/21 09:11:01;;;;;;;4.15;3.85;;;;;;;31.96;33.94;96636.06;5054831;28;20128;-69
2023/06/21 09:13:29;;;;;;;5.50;3.50;;;;;;;31.72;32.79;96627.28;5055140;28;20151;-69
2023/06/21 09:15:57;;;;;;;4.53;4.13;;;;;;;31.51;33.22;96632.44;5054988;28;20045;-69
2023/06/21 09:18:24;;;;;;;5.18;3.42;;;;;;;31.24;33.52;96628.56;5054842;28;20048;-69
2023/06/21 09:20:52;;;;;;;4.35;3.95;;;;;;;31.09;34.57;96629.38;5054753;28;20064;-69
2023/06/21 09:23:19;;;;;;;6.95;4.10;;;;;;;30.97;32.70;96623.63;5054837;28;20049;-69
2023/06/21 09:25:48;;;;;;;4.78;3.90;;;;;;;31.08;35.03;96630.41;5054689;28;20135;-69
2023/06/21 09:28:16;;;;;;;4.35;3.60;;;;;;;31.15;36.92;96625.94;5054518;28;20099;-69
2023/06/21 09:30:44;;;;;;;5.78;3.33;;;;;;;30.99;35.59;96623.44;5054504;28;20060;-69
2023/06/21 09:33:12;;;;;;;4.50;4.07;;;;;;;31.05;35.13;96628.09;5054530;28;20045;-69
2023/06/21 09:35:39;;;;;;;5.07;4.57;;;;;;;30.86;34.67;96624.09;5054510;28;20052;-69
2023/06/21 09:38:21;;;;;;;6.63;4.05;;;;;;;30.77;37.05;96624.19;5054552;28;20045;-69
2023/06/21 09:40:49;;;;;;;4.70;4.30;;;;;;;30.21;36.35;96630.75;5054298;28;20136;-69
2023/06/21 09:43:19;;;;;;;4.53;4.03;;;;;;;29.70;38.91;96621.31;5054212;28;20103;-69
2023/06/21 09:45:59;;;;;;;5.05;4.45;;;;;;;29.76;39.93;96626.00;5054039;28;20059;-69
2023/06/21 09:48:26;;;;;;;6.38;4.55;;;;;;;29.85;42.02;96625.91;5054019;28;20128;-69
2023/06/21 09:50:56;;;;;;;6.28;4.65;;;;;;;29.93;36.20;96623.19;5053387;28;20561;-69
2023/06/21 09:53:24;;;;;;;4.32;3.97;;;;;;;30.05;37.70;96629.00;5053963;28;20053;-69
2023/06/21 09:55:52;;;;;;;6.60;4.30;;;;;;;30.14;39.95;96621.66;5053999;28;20049;-69
2023/06/21 09:58:21;;;;;;;4.75;4.35;;;;;;;30.17;41.45;96626.75;5053828;28;20052;-70
2023/06/21 10:00:48;;;;;;;7.03;3.90;;;;;;;30.14;41.81;96627.91;5053583;28;20498;-69
2023/06/21 10:03:16;;;;;;;5.22;4.50;;;;;;;30.12;41.24;96632.63;5053880;28;20513;-69
2023/06/21 10:06:04;;;;;;;8.05;4.55;;;;;;;29.96;42.25;96625.53;5053942;28;20131;-69
2023/06/21 10:08:33;;;;;;;5.70;3.70;;;;;;;29.94;42.43;96632.09;5049343;28;20052;-69
2023/06/21 10:11:01;;;;;;;5.05;4.60;;;;;;;29.72;41.33;96626.50;5053746;28;20053;-69
2023/06/21 10:13:31;;;;;;;8.27;4.45;;;;;;;29.70;43.04;96626.69;5053727;28;20132;-69
2023/06/21 10:16:01;;;;;;;5.07;4.05;;;;;;;29.66;43.84;96624.53;5053557;28;20049;-69
2023/06/21 10:18:29;;;;;;;5.22;4.20;;;;;;;29.64;43.17;96627.41;5053523;28;20049;-69
2023/06/21 10:21:01;;;;;;;5.22;4.20;;;;;;;29.58;43.64;96628.94;5053673;28;20057;-69
2023/06/21 10:23:31;;;;;;;4.80;4.40;;;;;;;29.53;45.94;96620.53;5053930;28;20087;-69
2023/06/21 10:26:01;;;;;;;5.47;4.55;;;;;;;29.51;44.97;96625.25;5053450;28;20136;-69
2023/06/21 10:28:33;;;;;;;4.75;4.35;;;;;;;29.48;44.83;96623.78;5053446;28;20068;-69
2023/06/21 10:31:02;;;;;;;6.50;4.53;;;;;;;29.51;44.57;96620.72;5053362;28;20392;-69
2023/06/21 10:33:31;;;;;;;4.53;4.13;;;;;;;29.61;40.01;96622.38;5053399;28;20077;-69
2023/06/21 10:36:02;;;;;;;4.85;4.45;;;;;;;29.70;42.68;96625.84;5053296;28;20049;-69
2023/06/21 10:38:34;;;;;;;4.72;4.22;;;;;;;29.68;41.91;96620.66;5053194;28;20049;-69
2023/06/21 10:41:03;;;;;;;6.90;4.45;;;;;;;29.61;43.78;96617.81;5053112;28;20048;-69
2023/06/21 10:43:33;;;;;;;7.55;4.95;;;;;;;29.55;42.92;96605.06;5053347;28;20133;-69
2023/06/21 10:46:01;;;;;;;4.53;4.13;;;;;;;29.61;44.22;96608.88;5053062;28;20410;-69
2023/06/21 10:48:31;;;;;;;5.90;4.47;;;;;;;29.64;44.26;96616.63;5053136;28;20067;-69
2023/06/21 10:51:01;;;;;;;5.28;4.65;;;;;;;29.70;41.96;96610.53;5053118;28;20131;-69
2023/06/21 10:53:30;;;;;;;6.70;4.40;;;;;;;29.78;45.69;96609.63;5053083;28;20479;-69
2023/06/21 10:55:58;;;;;;;9.00;5.28;;;;;;;29.84;43.99;96610.78;5053188;28;20081;-69
2023/06/21 10:58:27;;;;;;;4.97;4.57;;;;;;;30.09;42.11;96614.13;5053065;28;20053;-69
2023/06/21 11:00:57;;;;;;;4.93;4.40;;;;;;;30.35;41.81;96620.19;5052683;28;20057;-69
2023/06/21 11:03:25;;;;;;;4.50;4.10;;;;;;;30.44;39.73;96611.00;5052819;28;20048;-69
2023/06/21 11:05:55;;;;;;;6.35;4.38;;;;;;;30.64;42.34;96615.88;5053018;28;20049;-69
2023/06/21 11:08:33;;;;;;;4.65;4.18;;;;;;;30.83;40.12;96609.13;5053038;28;20138;-69
2023/06/21 11:11:00;;;;;;;9.85;4.15;;;;;;;31.03;41.01;96608.53;5052955;28;20099;-69
2023/06/21 11:13:36;;;;;;;5.15;4.22;;;;;;;31.15;42.33;96609.72;5053087;28;20063;-69
2023/06/21 11:16:16;;;;;;;5.57;4.07;;;;;;;31.37;39.77;96609.84;5052993;28;20071;-69
2023/06/21 11:18:44;;;;;;;;;;;;;;;31.43;38.75;96616.34;5053251;28;20052;-69
2023/06/21 11:21:11;;;;;;;5.00;4.50;;;;;;;31.44;37.38;96615.31;5052736;28;20317;-69
2023/06/21 11:23:49;;;;;;;7.85;4.15;;;;;;;31.47;37.40;96611.38;5052802;28;20551;-69
2023/06/21 11:26:17;;;;;;;5.55;4.63;;;;;;;31.57;38.76;96606.50;5052863;28;20051;-69
2023/06/21 11:28:46;;;;;;;5.18;4.70;;;;;;;31.74;38.20;96601.72;5052680;28;20045;-69
2023/06/21 11:31:17;;;;;;;6.40;4.35;;;;;;;31.97;37.62;96605.28;5052692;28;20055;-69
2023/06/21 11:33:55;;;;;;;7.85;4.30;;;;;;;32.11;39.91;96603.56;5052877;28;20045;-69
2023/06/21 11:36:28;;;;;;;4.88;4.47;;;;;;;31.92;35.49;96599.59;5052772;28;20080;-69
2023/06/21 11:39:26;;;;;;;5.38;4.88;;;;;;;31.76;37.17;96604.22;5052632;28;20052;-69
2023/06/21 11:42:01;;;;;;;5.18;4.40;;;;;;;31.45;36.63;96598.06;5052686;28;20055;-68